createdAt,value
2023-03-18T00:02:14.363Z,11.23
2023-03-18T00:04:41.762Z,11.33
2023-03-18T00:07:10.645Z,12.37
2023-03-18T00:09:38.184Z,12.23
2023-03-18T00:12:05.766Z,11.53
2023-03-18T00:14:35.292Z,11.93
2023-03-18T00:17:02.562Z,10.80
2023-03-18T00:19:29.958Z,11.57
2023-03-18T00:21:57.840Z,12.47
2023-03-18T00:24:26.829Z,13.13
2023-03-18T00:26:54.075Z,12.50
2023-03-18T00:29:21.348Z,11.70
2023-03-18T00:31:48.702Z,12.50
2023-03-18T00:34:15.920Z,11.47
2023-03-18T00:36:49.241Z,12.47
2023-03-18T00:39:16.623Z,12.33
2023-03-18T00:41:45.224Z,11.20
2023-03-18T00:44:12.676Z,12.10
2023-03-18T00:46:40.378Z,12.50
2023-03-18T00:49:08.329Z,11.70
2023-03-18T00:51:36.385Z,12.30
2023-03-18T00:54:23.921Z,12.33
2023-03-18T00:57:05.062Z,11.50
2023-03-18T00:59:32.430Z,10.33
2023-03-18T01:01:59.902Z,12.03
2023-03-18T01:04:27.177Z,12.57
2023-03-18T01:06:54.478Z,13.47
2023-03-18T01:09:21.733Z,14.00
2023-03-18T01:12:07.747Z,13.40
2023-03-18T01:14:36.854Z,11.90
2023-03-18T01:17:04.770Z,13.57
2023-03-18T01:19:32.031Z,13.10
2023-03-18T01:21:59.276Z,12.37
2023-03-18T01:24:45.777Z,13.07
2023-03-18T01:27:32.198Z,13.47
2023-03-18T01:30:02.068Z,12.70
2023-03-18T01:32:29.382Z,12.93
2023-03-18T01:34:57.348Z,11.90
2023-03-18T01:37:25.989Z,12.90
2023-03-18T01:40:04.458Z,12.80
2023-03-18T01:45:12.732Z,13.30
2023-03-18T01:47:41.775Z,12.57
2023-03-18T01:50:09.546Z,12.10
2023-03-18T01:52:51.649Z,12.83
2023-03-18T01:55:40.019Z,11.43
2023-03-18T01:58:09.207Z,11.90
2023-03-18T02:00:40.655Z,12.07
2023-03-18T02:03:08.214Z,12.43
2023-03-18T02:05:36.403Z,12.07
2023-03-18T02:08:03.765Z,12.73
2023-03-18T02:10:32.287Z,12.20
2023-03-18T02:13:03.287Z,12.73
2023-03-18T02:15:36.148Z,11.87
2023-03-18T02:18:07.475Z,11.37
2023-03-18T02:20:44.009Z,11.83
2023-03-18T02:23:35.801Z,10.97
2023-03-18T02:26:24.014Z,13.13
2023-03-18T02:28:55.041Z,11.83
2023-03-18T02:31:22.530Z,11.67
2023-03-18T02:33:50.329Z,11.20
2023-03-18T02:36:19.259Z,10.57
2023-03-18T02:38:47.483Z,10.90
2023-03-18T02:41:23.521Z,12.37
2023-03-18T02:43:51.876Z,11.70
2023-03-18T02:46:27.595Z,12.63
2023-03-18T02:48:55.471Z,11.33
2023-03-18T02:51:23.421Z,12.40
2023-03-18T02:53:50.986Z,12.87
2023-03-18T02:56:37.989Z,13.43
2023-03-18T02:59:27.190Z,12.70
2023-03-18T03:02:01.648Z,11.67
2023-03-18T03:04:29.325Z,12.47
2023-03-18T03:06:57.409Z,11.20
2023-03-18T03:09:44.372Z,11.53
2023-03-18T03:12:12.031Z,10.13
2023-03-18T03:14:44.779Z,12.30
2023-03-18T03:17:20.084Z,11.33
2023-03-18T03:19:47.525Z,11.30
2023-03-18T03:22:14.984Z,10.90
2023-03-18T03:24:42.324Z,11.67
2023-03-18T03:30:57.310Z,12.40
2023-03-18T03:33:26.667Z,11.50
2023-03-18T03:35:54.068Z,11.03
2023-03-18T03:38:21.491Z,11.63
2023-03-18T03:40:48.761Z,11.00
2023-03-18T03:43:16.302Z,10.60
2023-03-18T03:45:48.971Z,12.57
2023-03-18T03:48:16.329Z,8.97
2023-03-18T03:50:44.952Z,9.73
2023-03-18T03:53:12.276Z,10.53
2023-03-18T03:56:03.473Z,10.60
2023-03-18T03:58:53.244Z,11.03
2023-03-18T04:01:28.059Z,11.13
2023-03-18T04:03:57.313Z,11.13
2023-03-18T04:06:26.349Z,11.73
2023-03-18T04:09:00.490Z,10.47
2023-03-18T04:11:27.820Z,11.57
2023-03-18T04:13:55.231Z,11.07
2023-03-18T04:16:22.949Z,10.70
2023-03-18T04:18:50.330Z,10.80
2023-03-18T04:21:17.913Z,11.07
2023-03-18T04:23:54.427Z,11.80
2023-03-18T04:26:23.295Z,11.73
2023-03-18T04:28:52.331Z,11.23
2023-03-18T04:31:21.105Z,11.60
2023-03-18T04:33:48.795Z,11.37
2023-03-18T04:36:16.183Z,11.93
2023-03-18T04:38:43.492Z,12.37
2023-03-18T04:41:12.543Z,11.53
2023-03-18T04:43:40.147Z,10.63
2023-03-18T04:46:13.978Z,10.80
2023-03-18T04:48:43.099Z,10.80
2023-03-18T04:51:11.069Z,10.83
2023-03-18T04:53:39.279Z,11.73
2023-03-18T04:56:08.060Z,11.53
2023-03-18T04:58:47.061Z,11.17
2023-03-18T05:01:30.474Z,11.30
2023-03-18T05:03:58.318Z,12.30
2023-03-18T05:06:32.038Z,10.57
2023-03-18T05:09:05.869Z,10.50
2023-03-18T05:11:34.914Z,10.23
2023-03-18T05:16:55.417Z,10.57
2023-03-18T05:19:23.267Z,9.87
2023-03-18T05:21:59.642Z,10.93
2023-03-18T05:24:36.488Z,10.40
2023-03-18T05:27:26.983Z,9.27
2023-03-18T05:30:06.040Z,10.30
2023-03-18T05:32:44.467Z,10.47
2023-03-18T05:35:13.305Z,10.53
2023-03-18T05:37:48.081Z,9.57
2023-03-18T05:40:16.106Z,9.73
2023-03-18T05:42:56.372Z,9.60
2023-03-18T05:45:38.618Z,10.07
2023-03-18T05:48:09.224Z,10.60
2023-03-18T05:50:44.383Z,9.33
2023-03-18T05:53:16.731Z,10.27
2023-03-18T05:56:01.189Z,11.10
2023-03-18T05:58:41.613Z,12.17
2023-03-18T06:01:21.211Z,11.40
2023-03-18T06:03:50.292Z,11.43
2023-03-18T06:06:17.625Z,10.87
2023-03-18T06:08:44.857Z,11.83
2023-03-18T06:11:12.114Z,10.63
2023-03-18T06:13:39.408Z,11.90
2023-03-18T06:16:07.438Z,12.70
2023-03-18T06:18:34.901Z,12.30
2023-03-18T06:21:03.495Z,12.67
2023-03-18T06:23:31.135Z,11.77
2023-03-18T06:25:58.359Z,12.90
2023-03-18T06:28:31.422Z,12.20
2023-03-18T06:31:02.592Z,12.23
2023-03-18T06:33:29.971Z,11.93
2023-03-18T06:35:57.207Z,12.47
2023-03-18T06:38:25.804Z,11.70
2023-03-18T06:40:56.564Z,10.53
2023-03-18T06:45:59.815Z,11.93
2023-03-18T06:48:27.738Z,13.43
2023-03-18T06:50:57.230Z,12.57
2023-03-18T06:53:31.814Z,12.13
2023-03-18T06:55:59.199Z,13.80
2023-03-18T06:58:38.984Z,11.57
2023-03-18T07:01:18.470Z,12.43
2023-03-18T07:04:02.731Z,11.33
2023-03-18T07:06:30.625Z,11.93
2023-03-18T07:09:00.306Z,11.53
2023-03-18T07:11:28.956Z,12.70
2023-03-18T07:13:56.955Z,12.57
2023-03-18T07:16:28.754Z,13.00
2023-03-18T07:18:56.125Z,12.70
2023-03-18T07:21:30.154Z,13.23
2023-03-18T07:24:01.982Z,11.47
2023-03-18T07:26:29.304Z,11.67
2023-03-18T07:28:56.721Z,13.13
2023-03-18T07:31:24.572Z,12.00
2023-03-18T07:33:51.949Z,13.20
2023-03-18T07:36:19.372Z,13.47
2023-03-18T07:38:46.659Z,13.07
2023-03-18T07:41:15.270Z,13.73
2023-03-18T07:43:42.515Z,14.10
2023-03-18T07:46:10.069Z,11.73
2023-03-18T07:51:04.667Z,10.70
2023-03-18T07:53:31.965Z,12.43
2023-03-18T07:55:59.198Z,12.63
2023-03-18T07:58:27.752Z,11.97
2023-03-18T08:01:17.104Z,10.17
2023-03-18T08:03:56.725Z,12.90
2023-03-18T08:06:24.005Z,12.40
2023-03-18T08:08:51.388Z,12.47
2023-03-18T08:11:18.630Z,13.13
2023-03-18T08:13:47.281Z,12.03
2023-03-18T08:16:14.793Z,12.53
2023-03-18T08:21:24.065Z,11.83
2023-03-18T08:23:51.687Z,13.93
2023-03-18T08:26:19.078Z,12.27
2023-03-18T08:29:07.943Z,11.87
2023-03-18T08:31:39.164Z,13.40
2023-03-18T08:34:11.862Z,12.53
2023-03-18T08:36:40.959Z,13.13
2023-03-18T08:39:08.144Z,13.77
2023-03-18T08:41:35.479Z,13.33
2023-03-18T08:44:02.916Z,12.27
2023-03-18T08:46:30.330Z,11.93
2023-03-18T08:49:00.308Z,15.63
2023-03-18T08:51:27.697Z,13.07
2023-03-18T08:53:54.944Z,14.47
2023-03-18T08:56:22.247Z,12.90
2023-03-18T08:58:49.748Z,13.10
2023-03-18T09:01:35.979Z,13.03
2023-03-18T09:04:10.462Z,12.53
2023-03-18T09:06:37.712Z,13.77
2023-03-18T09:09:05.227Z,13.13
2023-03-18T09:11:32.485Z,11.83
2023-03-18T09:13:59.848Z,13.30
2023-03-18T09:16:27.230Z,12.97
2023-03-18T09:18:54.503Z,10.57
2023-03-18T09:21:23.109Z,11.27
2023-03-18T09:23:50.352Z,13.17
2023-03-18T09:26:17.854Z,12.93
2023-03-18T09:28:45.138Z,11.93
2023-03-18T09:31:12.374Z,10.23
2023-03-18T09:33:45.070Z,7.23
2023-03-18T09:36:12.418Z,12.57
2023-03-18T09:38:41.324Z,11.77
2023-03-18T09:41:15.127Z,12.60
2023-03-18T09:44:13.163Z,13.30
2023-03-18T09:47:07.624Z,12.43
2023-03-18T09:49:38.236Z,15.00
2023-03-18T09:52:12.306Z,14.07
2023-03-18T09:54:42.469Z,17.07
2023-03-18T09:57:13.480Z,15.80
2023-03-18T09:59:42.685Z,16.90
2023-03-18T10:02:28.370Z,14.97
2023-03-18T10:04:57.332Z,17.07
2023-03-18T10:07:26.560Z,16.53
2023-03-18T10:09:57.052Z,15.97
2023-03-18T10:12:35.124Z,16.40
2023-03-18T10:15:16.363Z,14.57
2023-03-18T10:17:45.447Z,14.73
2023-03-18T10:20:16.649Z,14.57
2023-03-18T10:22:50.277Z,12.83
2023-03-18T10:25:23.680Z,13.73
2023-03-18T10:27:58.261Z,12.87
2023-03-18T10:30:32.572Z,11.90
2023-03-18T10:33:03.994Z,11.57
2023-03-18T10:35:35.246Z,12.90
2023-03-18T10:38:03.436Z,12.30
2023-03-18T10:40:35.122Z,12.53
2023-03-18T10:43:16.395Z,12.43
2023-03-18T10:45:59.552Z,11.60
2023-03-18T10:48:28.472Z,10.03
2023-03-18T10:51:02.606Z,12.20
2023-03-18T10:53:31.760Z,11.40
2023-03-18T10:56:03.104Z,11.90
2023-03-18T10:58:30.365Z,12.07
2023-03-18T11:03:50.244Z,12.17
2023-03-18T11:06:19.440Z,12.43
2023-03-18T11:08:48.379Z,10.07
2023-03-18T11:11:26.736Z,9.57
2023-03-18T11:14:15.777Z,10.83
2023-03-18T11:17:02.122Z,11.40
2023-03-18T11:19:31.320Z,11.80
2023-03-18T11:22:06.566Z,10.33
2023-03-18T11:24:34.053Z,8.27
2023-03-18T11:27:03.103Z,11.90
2023-03-18T11:29:31.916Z,12.00
2023-03-18T11:32:00.086Z,11.70
2023-03-18T11:34:29.238Z,9.73
2023-03-18T11:36:57.816Z,9.80
2023-03-18T11:39:25.855Z,10.90
2023-03-18T11:42:27.502Z,9.43
2023-03-18T11:45:23.585Z,11.83
2023-03-18T11:47:50.892Z,11.57
2023-03-18T11:50:20.032Z,11.53
2023-03-18T11:52:51.805Z,9.57
2023-03-18T11:55:24.783Z,9.77
2023-03-18T11:58:02.711Z,10.70
2023-03-18T12:00:33.058Z,8.50
2023-03-18T12:03:17.678Z,9.60
2023-03-18T12:05:53.059Z,9.33
2023-03-18T12:08:22.458Z,8.50
2023-03-18T12:10:52.434Z,9.33
2023-03-18T12:13:28.731Z,10.10
2023-03-18T12:16:03.407Z,6.17
2023-03-18T12:18:50.484Z,8.03
2023-03-18T12:21:38.576Z,8.27
2023-03-18T12:24:14.251Z,8.37
2023-03-18T12:26:46.049Z,6.63
2023-03-18T12:29:26.358Z,6.93
2023-03-18T12:32:01.025Z,6.10
2023-03-18T12:34:34.731Z,5.77
2023-03-18T12:37:06.881Z,5.47
2023-03-18T12:39:51.454Z,5.23
2023-03-18T12:42:19.094Z,5.30
2023-03-18T12:44:57.688Z,3.70
2023-03-18T12:47:29.189Z,5.00
2023-03-18T12:49:58.116Z,4.23
2023-03-18T12:52:28.185Z,3.97
2023-03-18T12:54:58.369Z,4.37
2023-03-18T12:57:29.027Z,3.80
2023-03-18T12:59:58.543Z,3.50
2023-03-18T13:02:40.398Z,3.40
2023-03-18T13:05:14.383Z,3.73
2023-03-18T13:07:43.875Z,3.10
2023-03-18T13:10:19.445Z,2.90
2023-03-18T13:12:48.742Z,2.90
2023-03-18T13:15:19.335Z,2.60
2023-03-18T13:17:48.250Z,3.60
2023-03-18T13:20:17.011Z,2.57
2023-03-18T13:23:00.457Z,2.43
2023-03-18T13:25:33.968Z,2.30
2023-03-18T13:28:08.840Z,3.07
2023-03-18T13:30:42.390Z,3.03
2023-03-18T13:33:28.601Z,2.70
2023-03-18T13:36:16.993Z,2.90
2023-03-18T13:38:49.515Z,2.73
2023-03-18T13:41:29.660Z,3.40
2023-03-18T13:43:58.176Z,4.40
2023-03-18T13:46:27.237Z,4.80
2023-03-18T13:48:56.846Z,3.53
2023-03-18T13:51:38.980Z,2.70
2023-03-18T13:54:12.897Z,2.93
2023-03-18T13:56:47.467Z,3.03
2023-03-18T13:59:29.607Z,2.50
2023-03-18T14:01:58.959Z,2.60
2023-03-18T14:04:31.865Z,2.77
2023-03-18T14:07:13.152Z,2.67
2023-03-18T14:10:02.561Z,2.60
2023-03-18T14:12:39.751Z,2.10
2023-03-18T14:15:25.857Z,2.10
2023-03-18T14:17:54.276Z,3.00
2023-03-18T14:20:24.437Z,2.40
2023-03-18T14:22:52.411Z,2.37
2023-03-18T14:25:22.805Z,2.90
2023-03-18T14:27:51.565Z,2.60
2023-03-18T14:30:40.433Z,2.73
2023-03-18T14:33:30.403Z,2.93
2023-03-18T14:35:59.951Z,2.97
2023-03-18T14:38:27.997Z,4.00
2023-03-18T14:40:56.075Z,2.70
2023-03-18T14:43:25.865Z,2.97
2023-03-18T14:45:57.140Z,2.47
2023-03-18T14:48:25.452Z,2.57
2023-03-18T14:50:53.309Z,2.87
2023-03-18T14:53:23.408Z,2.77
2023-03-18T14:55:51.333Z,2.60
2023-03-18T14:58:19.465Z,3.20
2023-03-18T15:00:47.876Z,3.30
2023-03-18T15:03:17.237Z,3.60
2023-03-18T15:05:44.740Z,3.00
2023-03-18T15:08:15.006Z,3.27
2023-03-18T15:10:46.489Z,3.20
2023-03-18T15:13:14.829Z,2.77
2023-03-18T15:15:42.892Z,3.13
2023-03-18T15:18:17.653Z,3.23
2023-03-18T15:20:45.949Z,3.47
2023-03-18T15:23:14.460Z,3.30
2023-03-18T15:25:43.585Z,2.77
2023-03-18T15:28:16.705Z,2.97
2023-03-18T15:30:50.991Z,2.90
2023-03-18T15:33:19.787Z,3.07
2023-03-18T15:35:54.395Z,3.07
2023-03-18T15:38:26.377Z,3.40
2023-03-18T15:40:54.355Z,2.70
2023-03-18T15:43:29.900Z,2.97
2023-03-18T15:45:57.680Z,2.77
2023-03-18T15:48:28.085Z,2.37
2023-03-18T15:50:56.470Z,3.23
2023-03-18T15:53:25.107Z,2.80
2023-03-18T15:55:53.141Z,2.80
2023-03-18T15:58:21.965Z,2.73
2023-03-18T16:00:50.900Z,2.80
2023-03-18T16:03:19.173Z,2.30
2023-03-18T16:05:46.647Z,3.00
2023-03-18T16:08:13.960Z,2.60
2023-03-18T16:10:41.650Z,2.93
2023-03-18T16:13:10.838Z,3.07
2023-03-18T16:15:38.137Z,2.20
2023-03-18T16:18:06.772Z,2.40
2023-03-18T16:20:34.001Z,2.13
2023-03-18T16:23:01.266Z,2.50
2023-03-18T16:25:28.631Z,2.50
2023-03-18T16:27:57.159Z,2.20
2023-03-18T16:30:26.469Z,2.27
2023-03-18T16:32:54.503Z,2.30
2023-03-18T16:35:24.130Z,2.20
2023-03-18T16:37:51.717Z,2.10
2023-03-18T16:40:20.585Z,2.10
2023-03-18T16:42:47.914Z,2.33
2023-03-18T16:45:15.756Z,2.50
2023-03-18T16:47:43.829Z,2.60
2023-03-18T16:50:21.181Z,2.53
2023-03-18T16:52:50.137Z,2.37
2023-03-18T16:55:18.472Z,3.10
2023-03-18T16:57:47.699Z,2.20
2023-03-18T17:00:17.636Z,2.20
2023-03-18T17:02:44.901Z,2.63
2023-03-18T17:05:14.563Z,2.67
2023-03-18T17:07:41.821Z,2.50
2023-03-18T17:10:11.528Z,2.27
2023-03-18T17:12:39.493Z,2.70
2023-03-18T17:15:07.489Z,2.20
2023-03-18T17:17:35.987Z,2.50
2023-03-18T17:20:04.158Z,1.70
2023-03-18T17:22:32.867Z,2.30
2023-03-18T17:25:00.860Z,1.87
2023-03-18T17:27:30.812Z,2.40
2023-03-18T17:29:58.408Z,2.60
2023-03-18T17:32:25.764Z,2.17
2023-03-18T17:34:54.030Z,2.57
2023-03-18T17:37:21.594Z,2.70
2023-03-18T17:39:48.814Z,2.43
2023-03-18T17:42:28.739Z,2.80
2023-03-18T17:45:00.142Z,2.93
2023-03-18T17:47:27.442Z,3.03
2023-03-18T17:49:54.834Z,2.23
2023-03-18T17:52:22.806Z,3.00
2023-03-18T17:54:50.330Z,3.37
2023-03-18T17:57:17.842Z,2.93
2023-03-18T17:59:45.037Z,3.10
2023-03-18T18:02:14.816Z,2.63
2023-03-18T18:04:42.094Z,2.97
2023-03-18T18:07:16.120Z,3.00
2023-03-18T18:09:43.408Z,4.03
2023-03-18T18:12:14.534Z,4.07
2023-03-18T18:14:41.803Z,2.90
2023-03-18T18:17:13.858Z,3.43
2023-03-18T18:19:41.139Z,3.20
2023-03-18T18:22:10.601Z,4.20
2023-03-18T18:24:39.033Z,4.60
2023-03-18T18:27:09.949Z,4.47
2023-03-18T18:29:37.219Z,3.90
2023-03-18T18:32:04.594Z,4.60
2023-03-18T18:34:33.144Z,3.00
2023-03-18T18:37:00.492Z,3.63
2023-03-18T18:39:27.973Z,3.40
2023-03-18T18:41:55.379Z,2.83
2023-03-18T18:44:22.848Z,3.53
2023-03-18T18:46:50.140Z,3.10
2023-03-18T18:49:18.471Z,2.70
2023-03-18T18:51:47.036Z,3.47
2023-03-18T18:54:14.268Z,3.50
2023-03-18T18:56:41.957Z,3.90
2023-03-18T18:59:18.751Z,4.30
2023-03-18T19:01:46.139Z,4.00
2023-03-18T19:04:14.591Z,3.33
2023-03-18T19:06:41.896Z,3.90
2023-03-18T19:09:15.565Z,3.87
2023-03-18T19:11:42.862Z,3.97
2023-03-18T19:14:16.068Z,2.73
2023-03-18T19:16:43.344Z,3.13
2023-03-18T19:19:11.807Z,3.27
2023-03-18T19:21:39.069Z,2.40
2023-03-18T19:24:21.014Z,1.70
2023-03-18T19:26:48.277Z,2.13
2023-03-18T19:29:15.500Z,2.43
2023-03-18T19:31:42.803Z,2.03
2023-03-18T19:34:15.589Z,2.40
2023-03-18T19:36:43.029Z,2.43
2023-03-18T19:39:14.668Z,2.60
2023-03-18T19:41:41.941Z,2.87
2023-03-18T19:44:14.043Z,2.53
2023-03-18T19:46:41.304Z,2.80
2023-03-18T19:49:16.461Z,2.90
2023-03-18T19:51:43.882Z,3.37
2023-03-18T19:54:26.944Z,2.93
2023-03-18T19:56:54.688Z,2.57
2023-03-18T19:59:23.658Z,3.30
2023-03-18T20:01:51.063Z,3.40
2023-03-18T20:04:19.504Z,3.27
2023-03-18T20:06:47.047Z,3.50
2023-03-18T20:09:15.521Z,2.43
2023-03-18T20:11:44.745Z,3.10
2023-03-18T20:14:20.854Z,3.37
2023-03-18T20:16:48.106Z,3.33
2023-03-18T20:19:15.344Z,4.03
2023-03-18T20:21:43.006Z,3.77
2023-03-18T20:24:12.045Z,3.70
2023-03-18T20:26:39.277Z,4.27
2023-03-18T20:29:12.600Z,4.27
2023-03-18T20:31:40.072Z,3.77
2023-03-18T20:34:07.397Z,3.43
2023-03-18T20:36:34.676Z,3.83
2023-03-18T20:39:01.940Z,3.80
2023-03-18T20:41:36.989Z,4.60
2023-03-18T20:44:04.566Z,4.07
2023-03-18T20:46:33.457Z,4.53
2023-03-18T20:49:00.733Z,4.17
2023-03-18T20:51:29.762Z,4.83
2023-03-18T20:53:57.058Z,4.20
2023-03-18T20:56:24.506Z,4.37
2023-03-18T20:58:51.910Z,4.67
2023-03-18T21:01:19.256Z,4.40
2023-03-18T21:03:49.644Z,4.70
2023-03-18T21:06:17.311Z,5.10
2023-03-18T21:08:44.606Z,5.60
2023-03-18T21:11:19.618Z,4.33
2023-03-18T21:13:46.986Z,4.20
2023-03-18T21:16:15.192Z,4.27
2023-03-18T21:18:42.780Z,4.87
2023-03-18T21:21:14.182Z,4.27
2023-03-18T21:23:41.515Z,4.97
2023-03-18T21:26:09.099Z,4.23
2023-03-18T21:28:36.514Z,5.10
2023-03-18T21:31:03.892Z,4.93
2023-03-18T21:33:31.858Z,4.80
2023-03-18T21:35:59.471Z,4.77
2023-03-18T21:38:28.990Z,4.57
2023-03-18T21:40:57.180Z,4.70
2023-03-18T21:43:28.923Z,4.80
2023-03-18T21:45:56.215Z,4.33
2023-03-18T21:48:23.530Z,4.13
2023-03-18T21:50:50.979Z,4.70
2023-03-18T21:53:18.702Z,5.03
2023-03-18T21:55:47.992Z,4.80
2023-03-18T21:58:16.572Z,4.60
2023-03-18T22:00:43.991Z,5.23
2023-03-18T22:03:14.965Z,4.73
2023-03-18T22:05:42.259Z,4.87
2023-03-18T22:08:09.864Z,4.93
2023-03-18T22:10:37.222Z,5.37
2023-03-18T22:13:16.404Z,4.67
2023-03-18T22:15:44.024Z,4.90
2023-03-18T22:18:11.399Z,4.50
2023-03-18T22:20:39.378Z,5.17
2023-03-18T22:23:13.874Z,5.13
2023-03-18T22:25:41.491Z,5.33
2023-03-18T22:28:09.051Z,4.63
2023-03-18T22:30:37.853Z,5.20
2023-03-18T22:33:06.480Z,5.60
2023-03-18T22:35:34.163Z,4.27
2023-03-18T22:38:01.592Z,3.80
2023-03-18T22:40:29.779Z,3.67
2023-03-18T22:42:57.948Z,3.87
2023-03-18T22:45:25.906Z,3.30
2023-03-18T22:47:55.520Z,4.23
2023-03-18T22:50:23.299Z,4.20
2023-03-18T22:52:51.963Z,4.40
2023-03-18T22:55:21.531Z,4.20
2023-03-18T22:57:49.203Z,4.70
2023-03-18T23:00:21.881Z,5.03
2023-03-18T23:02:52.839Z,4.47
2023-03-18T23:05:22.823Z,5.53
2023-03-18T23:07:50.943Z,5.53
2023-03-18T23:10:18.648Z,5.60
2023-03-18T23:12:46.430Z,5.77
2023-03-18T23:15:15.930Z,6.63
2023-03-18T23:17:43.939Z,6.57
2023-03-18T23:20:12.977Z,6.53
2023-03-18T23:22:42.225Z,6.53
2023-03-18T23:25:13.069Z,6.37
2023-03-18T23:27:43.321Z,6.00
2023-03-18T23:30:11.566Z,5.93
2023-03-18T23:32:44.472Z,7.70
2023-03-18T23:35:12.132Z,6.80
2023-03-18T23:37:39.385Z,7.70
2023-03-18T23:40:09.094Z,7.13
2023-03-18T23:42:36.451Z,7.43
2023-03-18T23:45:04.662Z,8.40
2023-03-18T23:47:32.260Z,7.70
2023-03-18T23:49:59.526Z,8.53
2023-03-18T23:52:26.768Z,7.73
2023-03-18T23:54:53.990Z,8.77
2023-03-18T23:57:23.049Z,9.33
2023-03-18T23:59:50.427Z,10.43
